EBLB 200055Z AUTO VRB01KT 0050 FG OVC002/// 13/13 Q1022 RED EBLB 200025Z AUTO VRB01KT 0100 FG OVC002/// 13/13 Q1022 RED EBLB 192355Z AUTO VRB01KT 0150 FG OVC002/// 13/13 Q1023 RED EBLB 192343Z AUTO VRB02KT 0750 BR SCT004/// BKN082/// 13/13 Q1023 RED EBLB 192341Z AUTO VRB02KT 1100 BR SCT004/// BKN082/// 13/13 Q1023 AMB EBLB 192335Z AUTO VRB01KT 6000 SCT004/// SCT079/// 13/12 Q1023 YLO EBLB 192333Z AUTO VRB01KT 7000 FEW005/// 13/12 Q1023 WHT EBLB 192325Z AUTO VRB01KT 8000 SCT058/// SCT081/// 13/12 Q1023 BLU EBLB 192255Z AUTO VRB01KT 9000 SCT015/// SCT061/// OVC075/// 14/13 Q1023 WHT EBLB 192251Z AUTO VRB01KT 9999 BKN015/// BKN061/// OVC074/// 13/13 Q1023 WHT EBLB 192225Z AUTO VRB02KT 9999 BKN014/// OVC076/// 14/13 Q1023 GRN EBLB 192203Z AUTO VRB01KT 9999 BKN014/// BKN077/// 13/13 Q1023 GRN EBLB 192155Z AUTO VRB01KT 9999 FEW013/// BKN020/// 13/13 Q1023 WHT EBLB 192125Z AUTO VRB01KT 9000 BKN022/// BKN070/// BKN080/// 14/13 Q1023 WHT EBLB 192103Z AUTO VRB01KT 7000 FEW022/// BKN080/// 14/13 Q1023 WHT EBLB 192055Z AUTO VRB01KT 9999 FEW022/// BKN080/// 14/13 Q1023 BLU EBLB 192047Z AUTO VRB01KT 9999 BKN081/// 14/13 Q1023 BLU EBLB 192035Z AUTO VRB01KT 7000 BKN081/// 14/13 Q1022 WHT EBLB 192025Z AUTO VRB01KT 9999 SCT083/// 14/13 Q1022 BLU EBLB 191955Z AUTO VRB01KT 9999 NCD 15/14 Q1022 BLU EBLB 191925Z AUTO VRB02KT 9999 FEW014/// SCT046/// BKN087/// 16/14 Q1022 BLU EBLB 191855Z AUTO VRB02KT 9999 FEW016/// 17/14 Q1022 BLU EBLB 191825Z AUTO 32003KT 9999 BKN018/// 18/14 Q1022 WHT EBLB 191755Z AUTO VRB01KT 9999 BKN018/// BKN096/// 18/14 Q1022 WHT EBLB 191735Z AUTO 35003KT 9999 SCT019/// SCT036/// BKN098/// 18/14 Q1022 WHT EBLB 191725Z AUTO 31003KT 9999 FEW019/// BKN099/// 18/14 Q1022 BLU EBLB 191655Z AUTO 31006KT 9999 BKN037/// 18/13 Q1021 BLU EBLB 191625Z AUTO 31009KT 9999 SCT032/// SCT038/// 19/13 Q1021 BLU EBLB 191555Z AUTO VRB02KT 9999 BKN032/// 19/15 Q1021 BLU EBLB 191550Z AUTO VRB02KT 9999 BKN033/// 19/14 Q1021 BLU EBLB 191539Z AUTO VRB01KT 7000 FEW035/// 19/14 Q1021 WHT EBLB 191525Z AUTO VRB01KT 9999 FEW240/// 18/14 Q1021 BLU EBLB 191455Z AUTO 32003KT 9999 FEW170/// SCT240/// 17/14 Q1021 BLU EBLB 191425Z AUTO VRB01KT 9999 OVC130/// 15/14 Q1021 BLU EBLB 191355Z AUTO 30003KT 9999 -RA BKN071/// 15/13 Q1020 BLU EBLB 191343Z AUTO 31010KT 9999 RA FEW010/// BKN062/// BKN120/// 15/14 Q1020 BLU EBLB 191325Z AUTO 31014G25KT 9999 -RA FEW010/// SCT024/// BKN069/// 16/14 Q1020 WHT EBLB 191305Z AUTO 30015G26KT 9999 BKN024/// 19/14 Q1019 WHT EBLB 191255Z AUTO 21011G24KT 9999 SCT050/// 23/15 Q1019 BLU EBLB 191225Z AUTO 18008KT 9999 NCD 25/14 Q1019 BLU EBLB 191155Z AUTO 18009KT 9999 FEW230/// 26/14 Q1019 BLU EBLB 191125Z AUTO 19010KT 9999 NCD 25/13 Q1019 BLU EBLB 191055Z AUTO 19007KT 9999 FEW066/// 24/13 Q1019 BLU EBLB 191050Z AUTO 19006KT 7000 NCD 24/13 Q1019 WHT EBLB 191025Z AUTO 18006KT 9999 FEW230/// 24/13 Q1019 BLU EBLB 190955Z AUTO 17007KT 8000 FEW023/// SCT077/// BKN130/// 23/13 Q1019 BLU EBLB 190855Z AUTO 17005KT 9999 FEW170/// 23/12 Q1019 BLU EBLB 190852Z AUTO 18005KT 9999 FEW079/// 23/13 Q1019 BLU EBLB 190841Z AUTO 19006KT 6000 FEW079/// 23/13 Q1020 WHT EBLB 190825Z AUTO 20006KT 9999 FEW079/// SCT230/// 22/12 Q1020 BLU EBLB 190817Z AUTO 19005KT 3900 FEW230/// 22/12 Q1020 GRN EBLB 190755Z AUTO 19003KT 9999 NCD 22/12 Q1020 BLU EBLB 190744Z AUTO 18004KT 9999 NCD 21/12 Q1020 BLU EBLB 190733Z AUTO 16003KT 4700 NCD 21/12 Q1020 GRN EBLB 190725Z AUTO VRB02KT 7000 NCD 21/12 Q1020 WHT EBLB 190655Z AUTO VRB02KT 9999 FEW100/// 20/11 Q1020 BLU EBLB 190645Z AUTO VRB02KT 7000 FEW100/// 20/12 Q1020 WHT EBLB 190625Z AUTO VRB02KT 9999 NCD 19/12 Q1020 BLU EBLB 182255Z AUTO 15003KT 9999 NCD 17/10 Q1021 BLU EBLB 182225Z AUTO VRB01KT 9999 NCD 14/12 Q1021 BLU EBLB 182155Z AUTO VRB01KT 9999 NCD 14/13 Q1021 BLU EBLB 182125Z AUTO VRB01KT 9999 NCD 15/13 Q1021 BLU EBLB 182055Z AUTO VRB01KT 9999 NCD 16/14 Q1021 BLU EBLB 182025Z AUTO VRB02KT 9999 NCD 17/14 Q1021 BLU EBLB 181955Z AUTO 12003KT 9999 NCD 18/14 Q1021 BLU EBLB 181925Z AUTO VRB01KT 9999 NCD 19/14 Q1021 BLU EBLB 181855Z AUTO VRB01KT 9999 NCD 20/15 Q1021 BLU EBLB 181825Z AUTO 03004KT 9999 NCD 21/14 Q1021 BLU EBLB 181755Z AUTO 01006KT 9999 NCD 22/15 Q1021 BLU EBLB 181725Z AUTO 34006KT 9999 FEW060/// 23/14 Q1021 BLU EBLB 181655Z AUTO 34007KT 9999 BKN060/// 23/14 Q1022 BLU EBLB 181625Z AUTO 34007KT 9999 BKN054/// 24/14 Q1022 BLU EBLB 181555Z AUTO 33007KT 9999 NCD 24/14 Q1022 BLU EBLB 181525Z AUTO 34007KT 9999 FEW050/// 25/15 Q1022 BLU EBLB 181455Z AUTO 29004KT 9999 BKN073/// 26/10 Q1022 BLU EBLB 181444Z AUTO 27004KT 9999 FEW070/// SCT078/// 26/09 Q1022 BLU EBLB 181425Z AUTO 18004KT 5000 SCT071/// SCT100/// 26/09 Q1022 WHT EBLB 181355Z AUTO 24006KT 9999 SCT069/// SCT096/// 26/09 Q1022 BLU EBLB 181325Z AUTO 18004KT 9999 SCT072/// 26/09 Q1022 BLU EBLB 181314Z AUTO VRB02KT 9999 BKN068/// 26/10 Q1022 BLU

METAR Messwerte "ELSENBORN (MIL)" EBLB

Zurück zur Übersicht

Ortsname
Ländercode / m ü. NN
Zeit Temperatur Taupunkt Rel.
Luftfeuchte
Luftdruck:
Altimeter
NN
Station
Wind in Beaufort
(Knoten)
Sichtweite
(Meter)
Wolken
(Meter über Grund)
Wettererscheinung
ELSENBORN (MIL)
BE 563
Fr 20.05. 02:551313100 %1022
1023
956
Uml 1 (1)50Bedeckt (61)Nebel
ELSENBORN (MIL)
BE 563
Fr 20.05. 02:251313100 %1022
1023
956
Uml 1 (1)100Bedeckt (61)Nebel
ELSENBORN (MIL)
BE 563
Fr 20.05. 01:551313100 %1023
1024
957
Uml 1 (1)150Bedeckt (61)Nebel
ELSENBORN (MIL)
BE 563
Fr 20.05. 01:431313100 %1023
1024
957
Uml 1 (2)750Stark bewölkt (2500)
Wolkig (120)
Nebeldunst
ELSENBORN (MIL)
BE 563
Fr 20.05. 01:411313100 %1023
1024
957
Uml 1 (2)1100Stark bewölkt (2500)
Wolkig (120)
Nebeldunst
ELSENBORN (MIL)
BE 563
Fr 20.05. 01:35131294 %1023
1024
957
Uml 1 (1)6000Wolkig (2400)
Wolkig (120)
 
ELSENBORN (MIL)
BE 563
Fr 20.05. 01:33131294 %1023
1024
957
Uml 1 (1)7000Leicht bewölkt (150) 
ELSENBORN (MIL)
BE 563
Fr 20.05. 01:25131294 %1023
1024
957
Uml 1 (1)8000Wolkig (2500)
Wolkig (1800)
 
ELSENBORN (MIL)
BE 563
Fr 20.05. 00:55141394 %1023
1023
957
Uml 1 (1)9000Bedeckt (2300)
Wolkig (1900)
Wolkig (460)
 
ELSENBORN (MIL)
BE 563
Fr 20.05. 00:511313100 %1023
1024
957
Uml 1 (1)>= 10000Bedeckt (2300)
Stark bewölkt (1900)
Stark bewölkt (460)
 
ELSENBORN (MIL)
BE 563
Fr 20.05. 00:25141394 %1023
1023
957
Uml 1 (2)>= 10000Bedeckt (2300)
Stark bewölkt (430)
 
ELSENBORN (MIL)
BE 563
Fr 20.05. 00:031313100 %1023
1024
957
Uml 1 (1)>= 10000Stark bewölkt (2300)
Stark bewölkt (430)
 
ELSENBORN (MIL)
BE 563
Do 19.05. 23:551313100 %1023
1024
957
Uml 1 (1)>= 10000Stark bewölkt (610)
Leicht bewölkt (400)
 
ELSENBORN (MIL)
BE 563
Do 19.05. 23:25141394 %1023
1023
957
Uml 1 (1)9000Stark bewölkt (2400)
Stark bewölkt (2100)
Stark bewölkt (670)
 
ELSENBORN (MIL)
BE 563
Do 19.05. 23:03141394 %1023
1023
957
Uml 1 (1)7000Stark bewölkt (2400)
Leicht bewölkt (670)
 
ELSENBORN (MIL)
BE 563
Do 19.05. 22:55141394 %1023
1023
957
Uml 1 (1)>= 10000Stark bewölkt (2400)
Leicht bewölkt (670)
 
ELSENBORN (MIL)
BE 563
Do 19.05. 22:47141394 %1023
1023
957
Uml 1 (1)>= 10000Stark bewölkt (2500) 
ELSENBORN (MIL)
BE 563
Do 19.05. 22:35141394 %1022
1022
956
Uml 1 (1)7000Stark bewölkt (2500) 
ELSENBORN (MIL)
BE 563
Do 19.05. 22:25141394 %1022
1022
956
Uml 1 (1)>= 10000Wolkig (2500) 
ELSENBORN (MIL)
BE 563
Do 19.05. 21:55151494 %1022
1022
956
Uml 1 (1)>= 10000  
ELSENBORN (MIL)
BE 563
Do 19.05. 21:25161488 %1022
1022
956
Uml 1 (2)>= 10000Stark bewölkt (2700)
Wolkig (1400)
Leicht bewölkt (430)
 
ELSENBORN (MIL)
BE 563
Do 19.05. 20:55171482 %1022
1022
956
Uml 1 (2)>= 10000Leicht bewölkt (490) 
ELSENBORN (MIL)
BE 563
Do 19.05. 20:25181477 %1022
1021
956
NW 2 (3)>= 10000Stark bewölkt (550) 
ELSENBORN (MIL)
BE 563
Do 19.05. 19:55181477 %1022
1021
956
Uml 1 (1)>= 10000Stark bewölkt (2900)
Stark bewölkt (550)
 
ELSENBORN (MIL)
BE 563
Do 19.05. 19:35181477 %1022
1021
956
N 2 (3)>= 10000Stark bewölkt (3000)
Wolkig (1100)
Wolkig (580)
 
ELSENBORN (MIL)
BE 563
Do 19.05. 19:25181477 %1022
1021
956
NW 2 (3)>= 10000Stark bewölkt (3000)
Leicht bewölkt (580)
 
ELSENBORN (MIL)
BE 563
Do 19.05. 18:55181373 %1021
1020
955
NW 2 (6)>= 10000Stark bewölkt (1100) 
ELSENBORN (MIL)
BE 563
Do 19.05. 18:25191368 %1021
1020
955
NW 3 (9)>= 10000Wolkig (1200)
Wolkig (980)
 
ELSENBORN (MIL)
BE 563
Do 19.05. 17:55191578 %1021
1020
955
Uml 1 (2)>= 10000Stark bewölkt (980) 
ELSENBORN (MIL)
BE 563
Do 19.05. 17:50191473 %1021
1020
955
Uml 1 (2)>= 10000Stark bewölkt (1000) 
ELSENBORN (MIL)
BE 563
Do 19.05. 17:39191473 %1021
1020
955
Uml 1 (1)7000Leicht bewölkt (1100) 
ELSENBORN (MIL)
BE 563
Do 19.05. 17:25181477 %1021
1020
955
Uml 1 (1)>= 10000Leicht bewölkt (7300) 
ELSENBORN (MIL)
BE 563
Do 19.05. 16:55171482 %1021
1021
955
NW 2 (3)>= 10000Wolkig (7300)
Leicht bewölkt (5200)
 
ELSENBORN (MIL)
BE 563
Do 19.05. 16:25151494 %1021
1021
955
Uml 1 (1)>= 10000Bedeckt (4000) 
ELSENBORN (MIL)
BE 563
Do 19.05. 15:55151388 %1020
1020
954
WNW 2 (3)>= 10000Stark bewölkt (2200)Regen (schwach)
ELSENBORN (MIL)
BE 563
Do 19.05. 15:43151494 %1020
1020
954
NW 3 (10)>= 10000Stark bewölkt (3700)
Stark bewölkt (1900)
Leicht bewölkt (300)
Regen
ELSENBORN (MIL)
BE 563
Do 19.05. 15:25161488 %1020
1020
954
NW 4 (14) - 6 (25)>= 10000Stark bewölkt (2100)
Wolkig (730)
Leicht bewölkt (300)
Regen (schwach)
ELSENBORN (MIL)
BE 563
Do 19.05. 15:05191473 %1019
1018
953
WNW 4 (15) - 6 (26)>= 10000Stark bewölkt (730) 
ELSENBORN (MIL)
BE 563
Do 19.05. 14:55231561 %1019
1017
953
SSW 4 (11) - 6 (24)>= 10000Wolkig (1500) 
ELSENBORN (MIL)
BE 563
Do 19.05. 14:25251450 %1019
1017
953
S 3 (8)>= 10000  
ELSENBORN (MIL)
BE 563
Do 19.05. 13:55261448 %1019
1017
953
S 3 (9)>= 10000Leicht bewölkt (7000) 
ELSENBORN (MIL)
BE 563
Do 19.05. 13:25251347 %1019
1017
953
S 3 (10)>= 10000  
ELSENBORN (MIL)
BE 563
Do 19.05. 12:55241350 %1019
1017
953
S 3 (7)>= 10000Leicht bewölkt (2000) 
ELSENBORN (MIL)
BE 563
Do 19.05. 12:50241350 %1019
1017
953
S 2 (6)7000  
ELSENBORN (MIL)
BE 563
Do 19.05. 12:25241350 %1019
1017
953
S 2 (6)>= 10000Leicht bewölkt (7000) 
ELSENBORN (MIL)
BE 563
Do 19.05. 11:55231353 %1019
1017
953
S 3 (7)8000Stark bewölkt (4000)
Wolkig (2300)
Leicht bewölkt (700)
 
ELSENBORN (MIL)
BE 563
Do 19.05. 10:55231250 %1019
1017
953
S 2 (5)>= 10000Leicht bewölkt (5200) 
ELSENBORN (MIL)
BE 563
Do 19.05. 10:52231353 %1019
1017
953
S 2 (5)>= 10000Leicht bewölkt (2400) 
ELSENBORN (MIL)
BE 563
Do 19.05. 10:41231353 %1020
1018
954
S 2 (6)6000Leicht bewölkt (2400) 
ELSENBORN (MIL)
BE 563
Do 19.05. 10:25221253 %1020
1018
954
SSW 2 (6)>= 10000Wolkig (7000)
Leicht bewölkt (2400)
 
ELSENBORN (MIL)
BE 563
Do 19.05. 10:17221253 %1020
1018
954
S 2 (5)3900Leicht bewölkt (7000) 
ELSENBORN (MIL)
BE 563
Do 19.05. 09:55221253 %1020
1018
954
S 2 (3)>= 10000  
ELSENBORN (MIL)
BE 563
Do 19.05. 09:44211256 %1020
1019
954
S 2 (4)>= 10000  
ELSENBORN (MIL)
BE 563
Do 19.05. 09:33211256 %1020
1019
954
SSO 2 (3)4700  
ELSENBORN (MIL)
BE 563
Do 19.05. 09:25211256 %1020
1019
954
Uml 1 (2)7000  
ELSENBORN (MIL)
BE 563
Do 19.05. 08:55201156 %1020
1019
954
Uml 1 (2)>= 10000Leicht bewölkt (3000) 
ELSENBORN (MIL)
BE 563
Do 19.05. 08:45201260 %1020
1019
954
Uml 1 (2)7000Leicht bewölkt (3000) 
ELSENBORN (MIL)
BE 563
Do 19.05. 08:25191264 %1020
1019
954
Uml 1 (2)>= 10000  
ELSENBORN (MIL)
BE 563
Do 19.05. 00:55171063 %1021
1021
955
SSO 2 (3)>= 10000  
ELSENBORN (MIL)
BE 563
Do 19.05. 00:25141288 %1021
1021
955
Uml 1 (1)>= 10000  
ELSENBORN (MIL)
BE 563
Mi 18.05. 23:55141394 %1021
1021
955
Uml 1 (1)>= 10000  
ELSENBORN (MIL)
BE 563
Mi 18.05. 23:25151388 %1021
1021
955
Uml 1 (1)>= 10000  
ELSENBORN (MIL)
BE 563
Mi 18.05. 22:55161488 %1021
1021
955
Uml 1 (1)>= 10000  
ELSENBORN (MIL)
BE 563
Mi 18.05. 22:25171482 %1021
1021
955
Uml 1 (2)>= 10000  
ELSENBORN (MIL)
BE 563
Mi 18.05. 21:55181477 %1021
1020
955
OSO 2 (3)>= 10000  
ELSENBORN (MIL)
BE 563
Mi 18.05. 21:25191473 %1021
1020
955
Uml 1 (1)>= 10000  
ELSENBORN (MIL)
BE 563
Mi 18.05. 20:55201573 %1021
1020
955
Uml 1 (1)>= 10000  
ELSENBORN (MIL)
BE 563
Mi 18.05. 20:25211464 %1021
1020
955
NNO 2 (4)>= 10000  
ELSENBORN (MIL)
BE 563
Mi 18.05. 19:55221565 %1021
1019
955
N 2 (6)>= 10000  
ELSENBORN (MIL)
BE 563
Mi 18.05. 19:25231457 %1021
1019
955
NNW 2 (6)>= 10000Leicht bewölkt (1800) 
ELSENBORN (MIL)
BE 563
Mi 18.05. 18:55231457 %1022
1020
956
NNW 3 (7)>= 10000Stark bewölkt (1800) 
ELSENBORN (MIL)
BE 563
Mi 18.05. 18:25241454 %1022
1020
956
NNW 3 (7)>= 10000Stark bewölkt (1600) 
ELSENBORN (MIL)
BE 563
Mi 18.05. 17:55241454 %1022
1020
956
NNW 3 (7)>= 10000  
ELSENBORN (MIL)
BE 563
Mi 18.05. 17:25251554 %1022
1020
956
NNW 3 (7)>= 10000Leicht bewölkt (1500) 
ELSENBORN (MIL)
BE 563
Mi 18.05. 16:55261037 %1022
1020
956
WNW 2 (4)>= 10000Stark bewölkt (2200) 
ELSENBORN (MIL)
BE 563
Mi 18.05. 16:4426934 %1022
1020
956
W 2 (4)>= 10000Wolkig (2400)
Leicht bewölkt (2100)
 
ELSENBORN (MIL)
BE 563
Mi 18.05. 16:2526934 %1022
1020
956
S 2 (4)5000Wolkig (3000)
Wolkig (2200)
 
ELSENBORN (MIL)
BE 563
Mi 18.05. 15:5526934 %1022
1020
956
WSW 2 (6)>= 10000Wolkig (2900)
Wolkig (2100)
 
ELSENBORN (MIL)
BE 563
Mi 18.05. 15:2526934 %1022
1020
956
S 2 (4)>= 10000Wolkig (2200) 
ELSENBORN (MIL)
BE 563
Mi 18.05. 15:14261037 %1022
1020
956
Uml 1 (2)>= 10000Stark bewölkt (2100) 

Altimeter: Einstellung am Altimeter (Höhenmesser), die Höhe 0 muss auf diesen Luftdruckwert zeigen, damit das Gerät die Stationshöhe richtig anzeigt.

NN: Luftdruck reduziert auf "Normal Null", auf Meereshöhe, dieser von der Temperatur abhängige Wert wird bisweilen unkorrekt einfach als "Luftdruck" bezeichnet. Eigentlich nur eine fiktive Größe, die es erlaubt, Stationen auf unterschiedlichen Höhen miteinander zu vergleichen.

Station: Realer Luftdruck an der Station.